Time;durP1;ratioP1;P1;durP2;ratioP2;P2;SDS_P1;SDS_P2;PMS_P1;PMS_P2;Temp;Humidity;BMP_temperature;BMP_pressure;BME280_temperature;BME280_humidity;BME280_pressure;Samples;Min_cycle;Max_cycle;Signal;HPM_P1;HPM_P2
2023/12/04 00:00:38;;;;;;;30.23;16.15;;;;;;;;;;5093742;28;20732;-81
2023/12/04 00:03:04;;;;;;;29.48;16.85;;;;;;;;;;5073000;28;20384;-81
2023/12/04 00:05:30;;;;;;;27.20;16.33;;;;;;;;;;5076012;28;20375;-81
2023/12/04 00:07:56;;;;;;;29.67;15.90;;;;;;;;;;5075523;28;20456;-81
2023/12/04 00:10:22;;;;;;;26.95;14.93;;;;;;;;;;5076192;28;20380;-81
2023/12/04 00:12:48;;;;;;;25.38;15.52;;;;;;;;;;5075710;28;20873;-81
2023/12/04 00:15:14;;;;;;;25.55;14.73;;;;;;;;;;5075672;28;20446;-81
2023/12/04 00:17:40;;;;;;;23.48;14.52;;;;;;;;;;5075900;28;20375;-81
2023/12/04 00:20:08;;;;;;;23.45;15.27;;;;;;;;;;5075804;28;20845;-81
2023/12/04 00:22:34;;;;;;;25.73;15.07;;;;;;;;;;5075862;28;20458;-81
2023/12/04 00:25:00;;;;;;;21.17;14.40;;;;;;;;;;5075085;28;20418;-81
2023/12/04 00:27:27;;;;;;;22.80;14.63;;;;;;;;;;5075622;28;20383;-81
2023/12/04 00:29:53;;;;;;;23.63;14.80;;;;;;;;;;5075577;28;20379;-81
2023/12/04 00:32:19;;;;;;;22.70;14.80;;;;;;;;;;5075652;28;20379;-81
2023/12/04 00:34:45;;;;;;;23.92;15.02;;;;;;;;;;5075497;28;20399;-81
2023/12/04 00:37:11;;;;;;;23.63;14.60;;;;;;;;;;5075395;28;20876;-81
2023/12/04 00:39:37;;;;;;;23.73;14.80;;;;;;;;;;5075608;28;20414;-81
2023/12/04 00:42:03;;;;;;;22.30;14.57;;;;;;;;;;5076642;28;20841;-81
2023/12/04 00:44:29;;;;;;;24.77;14.97;;;;;;;;;;5075382;28;20398;-81
2023/12/04 00:46:55;;;;;;;24.52;15.25;;;;;;;;;;5074156;28;20931;-81
2023/12/04 00:49:21;;;;;;;24.17;14.60;;;;;;;;;;5075197;28;20380;-81
2023/12/04 00:51:47;;;;;;;23.05;14.98;;;;;;;;;;5074941;28;20391;-81
2023/12/04 00:54:13;;;;;;;24.47;15.20;;;;;;;;;;5074762;28;20811;-81
2023/12/04 00:56:39;;;;;;;25.40;15.73;;;;;;;;;;5074770;28;20375;-81
2023/12/04 00:59:06;;;;;;;29.83;17.33;;;;;;;;;;5074929;28;20371;-81
2023/12/04 01:01:32;;;;;;;30.52;16.50;;;;;;;;;;5074835;28;20372;-81
2023/12/04 01:03:59;;;;;;;28.08;16.75;;;;;;;;;;5074939;28;20384;-81
2023/12/04 01:06:25;;;;;;;28.45;16.20;;;;;;;;;;5074495;28;20414;-81
2023/12/04 01:08:52;;;;;;;26.80;15.38;;;;;;;;;;5074711;28;20467;-81
2023/12/04 01:11:19;;;;;;;26.02;15.65;;;;;;;;;;5074143;28;20388;-81
2023/12/04 01:13:45;;;;;;;27.10;15.93;;;;;;;;;;5074468;28;20396;-81
2023/12/04 01:16:11;;;;;;;26.45;15.77;;;;;;;;;;5074524;28;20386;-81
2023/12/04 01:18:37;;;;;;;26.85;15.50;;;;;;;;;;5074494;28;20371;-81
2023/12/04 01:21:04;;;;;;;25.55;15.52;;;;;;;;;;5074415;28;20437;-81
2023/12/04 01:23:29;;;;;;;27.50;16.42;;;;;;;;;;5074197;28;20378;-81
2023/12/04 01:25:55;;;;;;;27.48;16.48;;;;;;;;;;5074602;28;20435;-81
2023/12/04 01:28:21;;;;;;;27.15;16.42;;;;;;;;;;5074251;28;20379;-81
2023/12/04 01:30:47;;;;;;;27.75;16.40;;;;;;;;;;5074704;28;20797;-81
2023/12/04 01:33:13;;;;;;;26.92;16.30;;;;;;;;;;5073990;28;20409;-81
2023/12/04 01:35:39;;;;;;;25.13;15.82;;;;;;;;;;5074009;28;20403;-81
2023/12/04 01:38:05;;;;;;;25.48;15.70;;;;;;;;;;5073587;28;20849;-81
2023/12/04 01:40:31;;;;;;;24.83;15.40;;;;;;;;;;5073626;28;20380;-81
2023/12/04 01:42:57;;;;;;;27.52;16.80;;;;;;;;;;5074485;28;20410;-81
2023/12/04 01:45:23;;;;;;;27.42;16.35;;;;;;;;;;5073681;28;20854;-81
2023/12/04 01:47:49;;;;;;;28.38;16.70;;;;;;;;;;5073574;28;20411;-81
2023/12/04 01:50:15;;;;;;;24.13;15.45;;;;;;;;;;5073985;28;20382;-81
2023/12/04 01:52:41;;;;;;;26.00;15.93;;;;;;;;;;5073895;28;20754;-81
2023/12/04 01:55:09;;;;;;;23.92;15.23;;;;;;;;;;5073508;28;20410;-81
2023/12/04 01:57:35;;;;;;;21.05;14.68;;;;;;;;;;5073201;28;20407;-81
2023/12/04 02:00:01;;;;;;;19.42;13.57;;;;;;;;;;5073131;28;20644;-81
2023/12/04 02:02:28;;;;;;;17.40;12.90;;;;;;;;;;5073216;28;20439;-81
2023/12/04 02:04:56;;;;;;;17.08;12.43;;;;;;;;;;5068043;28;20412;-81
2023/12/04 02:07:22;;;;;;;15.15;11.95;;;;;;;;;;5052902;28;20393;-81
2023/12/04 02:09:47;;;;;;;16.08;12.00;;;;;;;;;;5053330;28;20393;-81
2023/12/04 02:12:14;;;;;;;16.10;12.27;;;;;;;;;;5053476;28;20389;-81
2023/12/04 02:14:40;;;;;;;17.98;12.38;;;;;;;;;;5052814;28;20452;-81
2023/12/04 02:17:06;;;;;;;17.67;13.00;;;;;;;;;;5053302;28;20736;-81
2023/12/04 02:19:32;;;;;;;15.98;11.93;;;;;;;;;;5052930;28;20937;-81
2023/12/04 02:21:58;;;;;;;17.35;12.23;;;;;;;;;;5052897;28;20381;-81
2023/12/04 02:24:24;;;;;;;18.35;12.63;;;;;;;;;;5053028;28;20435;-81
2023/12/04 02:26:55;;;;;;;16.45;12.82;;;;;;;;;;5053174;28;20378;-81
2023/12/04 02:29:30;;;;;;;17.67;12.80;;;;;;;;;;5057699;28;20446;-81
2023/12/04 02:31:57;;;;;;;18.70;13.57;;;;;;;;;;5073288;28;20391;-81
2023/12/04 02:34:23;;;;;;;19.17;13.30;;;;;;;;;;5073160;28;20862;-81
2023/12/04 02:36:51;;;;;;;18.70;13.65;;;;;;;;;;5073414;28;20391;-81
2023/12/04 02:39:17;;;;;;;21.15;13.75;;;;;;;;;;5073542;28;20458;-81
2023/12/04 02:41:43;;;;;;;17.95;13.13;;;;;;;;;;5073124;28;20403;-81
2023/12/04 02:44:09;;;;;;;18.20;12.27;;;;;;;;;;5074128;28;20501;-81
2023/12/04 02:46:35;;;;;;;18.42;12.85;;;;;;;;;;5073145;28;20407;-81
2023/12/04 02:49:01;;;;;;;19.80;13.40;;;;;;;;;;5073011;28;20515;-81
2023/12/04 02:51:27;;;;;;;19.17;13.15;;;;;;;;;;5072954;28;20798;-81
2023/12/04 02:53:53;;;;;;;20.67;13.73;;;;;;;;;;5073026;28;20402;-81
2023/12/04 02:56:19;;;;;;;20.55;12.93;;;;;;;;;;5072806;28;20421;-81
2023/12/04 02:58:45;;;;;;;20.80;13.77;;;;;;;;;;5072786;28;20466;-81
2023/12/04 03:01:11;;;;;;;19.58;13.18;;;;;;;;;;5072980;28;20376;-81
2023/12/04 03:03:37;;;;;;;20.42;13.38;;;;;;;;;;5073148;28;20391;-81
2023/12/04 03:06:03;;;;;;;20.10;13.77;;;;;;;;;;5072888;28;20379;-81
2023/12/04 03:08:29;;;;;;;20.85;13.77;;;;;;;;;;5073109;28;20384;-81
2023/12/04 03:10:55;;;;;;;23.15;14.65;;;;;;;;;;5074966;28;20382;-81
2023/12/04 03:13:21;;;;;;;21.00;13.80;;;;;;;;;;5076631;28;20458;-81
2023/12/04 03:15:47;;;;;;;22.08;14.50;;;;;;;;;;5076927;28;20776;-81
2023/12/04 03:18:15;;;;;;;22.88;14.40;;;;;;;;;;5076053;28;20384;-81
2023/12/04 03:20:41;;;;;;;23.92;14.27;;;;;;;;;;5076668;28;20426;-81
2023/12/04 03:23:07;;;;;;;23.10;14.45;;;;;;;;;;5076496;28;20454;-81
2023/12/04 03:25:33;;;;;;;23.90;14.82;;;;;;;;;;5076174;28;20408;-81
2023/12/04 03:27:59;;;;;;;25.43;15.40;;;;;;;;;;5075856;28;20486;-81
2023/12/04 03:30:25;;;;;;;25.73;15.77;;;;;;;;;;5075493;28;20390;-81
2023/12/04 03:32:51;;;;;;;25.80;15.37;;;;;;;;;;5076040;28;20707;-81
2023/12/04 03:35:17;;;;;;;25.58;15.32;;;;;;;;;;5076008;28;20408;-81
2023/12/04 03:37:43;;;;;;;26.90;15.10;;;;;;;;;;5076122;28;20458;-81
2023/12/04 03:40:09;;;;;;;25.25;14.98;;;;;;;;;;5075686;28;20403;-81
2023/12/04 03:42:35;;;;;;;28.20;16.10;;;;;;;;;;5075918;28;20386;-81
2023/12/04 03:45:01;;;;;;;27.45;15.73;;;;;;;;;;5076391;28;20862;-81
2023/12/04 03:47:27;;;;;;;26.73;15.48;;;;;;;;;;5075410;28;20471;-81
2023/12/04 03:49:53;;;;;;;26.08;15.13;;;;;;;;;;5075678;28;20475;-81
2023/12/04 03:52:19;;;;;;;28.60;16.20;;;;;;;;;;5075868;28;20383;-81
2023/12/04 03:54:45;;;;;;;27.38;15.73;;;;;;;;;;5075837;28;20453;-81
2023/12/04 03:57:11;;;;;;;26.73;15.27;;;;;;;;;;5075485;28;20404;-81
2023/12/04 03:59:37;;;;;;;27.58;15.63;;;;;;;;;;5075675;28;20745;-81
2023/12/04 04:02:03;;;;;;;28.57;15.63;;;;;;;;;;5075550;28;20418;-81
2023/12/04 04:04:29;;;;;;;31.27;17.25;;;;;;;;;;5075568;28;20393;-81
2023/12/04 04:06:55;;;;;;;29.30;15.93;;;;;;;;;;5075336;28;20464;-81
2023/12/04 04:09:22;;;;;;;27.63;15.60;;;;;;;;;;5075499;28;20395;-81
2023/12/04 04:11:48;;;;;;;27.52;15.48;;;;;;;;;;5075169;28;20975;-81
2023/12/04 04:14:14;;;;;;;28.40;15.90;;;;;;;;;;5071998;28;20431;-81
2023/12/04 04:16:41;;;;;;;29.83;16.40;;;;;;;;;;5075124;28;20397;-81
2023/12/04 04:19:07;;;;;;;30.58;16.67;;;;;;;;;;5075003;28;20939;-81
2023/12/04 04:21:34;;;;;;;30.75;17.10;;;;;;;;;;5073872;28;20384;-81
2023/12/04 04:24:00;;;;;;;31.60;16.40;;;;;;;;;;5075165;28;20868;-81
2023/12/04 04:26:26;;;;;;;29.45;16.38;;;;;;;;;;5074772;28;20550;-81
2023/12/04 04:28:52;;;;;;;31.77;17.00;;;;;;;;;;5075145;28;20430;-81
2023/12/04 04:31:20;;;;;;;30.40;16.35;;;;;;;;;;5074986;28;20872;-81
2023/12/04 04:33:46;;;;;;;33.00;17.15;;;;;;;;;;5075205;28;20435;-81
2023/12/04 04:36:12;;;;;;;32.10;17.25;;;;;;;;;;5074879;28;20433;-81
2023/12/04 04:38:40;;;;;;;30.77;17.52;;;;;;;;;;5074868;28;20372;-81
2023/12/04 04:41:06;;;;;;;34.33;17.48;;;;;;;;;;5074819;28;20387;-81
2023/12/04 04:43:32;;;;;;;34.08;17.75;;;;;;;;;;5074693;28;20458;-81
2023/12/04 04:45:58;;;;;;;35.67;17.58;;;;;;;;;;5083803;28;20409;-81
2023/12/04 04:48:24;;;;;;;32.63;17.00;;;;;;;;;;5094411;28;20855;-81
2023/12/04 04:50:50;;;;;;;32.53;17.35;;;;;;;;;;5094640;28;20374;-81
2023/12/04 04:53:16;;;;;;;34.63;17.52;;;;;;;;;;5094514;28;20384;-81
2023/12/04 04:55:42;;;;;;;34.03;17.20;;;;;;;;;;5094512;28;20374;-81
2023/12/04 04:58:08;;;;;;;34.70;17.73;;;;;;;;;;5095247;28;20933;-81
2023/12/04 05:00:34;;;;;;;36.47;18.27;;;;;;;;;;5095544;28;20374;-81
2023/12/04 05:03:00;;;;;;;38.27;17.53;;;;;;;;;;5094680;28;20374;-81
2023/12/04 05:05:26;;;;;;;34.78;17.30;;;;;;;;;;5094682;28;20431;-81
2023/12/04 05:07:52;;;;;;;36.13;17.80;;;;;;;;;;5094553;28;20409;-81
2023/12/04 05:10:18;;;;;;;31.02;17.15;;;;;;;;;;5094782;28;20782;-81
2023/12/04 05:12:44;;;;;;;35.55;17.95;;;;;;;;;;5094864;28;20385;-81
2023/12/04 05:15:10;;;;;;;36.60;18.20;;;;;;;;;;5094251;28;20402;-81
2023/12/04 05:17:36;;;;;;;31.45;17.13;;;;;;;;;;5094172;28;20370;-81
2023/12/04 05:20:02;;;;;;;31.93;16.43;;;;;;;;;;5094558;28;20434;-81
2023/12/04 05:22:28;;;;;;;31.80;16.77;;;;;;;;;;5094332;28;20394;-81
2023/12/04 05:24:54;;;;;;;32.83;16.77;;;;;;;;;;5094146;28;20378;-82
2023/12/04 05:27:20;;;;;;;32.03;16.73;;;;;;;;;;5094086;28;20418;-81
2023/12/04 05:29:46;;;;;;;33.37;16.83;;;;;;;;;;5094191;28;20385;-81
2023/12/04 05:32:12;;;;;;;29.90;16.73;;;;;;;;;;5093850;28;20379;-81
2023/12/04 05:34:38;;;;;;;36.45;17.77;;;;;;;;;;5093528;28;20755;-81
2023/12/04 05:37:04;;;;;;;34.50;16.92;;;;;;;;;;5094726;28;20366;-81
2023/12/04 05:39:30;;;;;;;33.47;17.40;;;;;;;;;;5094725;28;20386;-81
2023/12/04 05:41:56;;;;;;;37.07;18.10;;;;;;;;;;5094275;28;20865;-81
2023/12/04 05:44:22;;;;;;;38.67;18.42;;;;;;;;;;5094645;28;20386;-81
2023/12/04 05:46:48;;;;;;;35.30;17.90;;;;;;;;;;5087243;28;20426;-81
2023/12/04 05:49:14;;;;;;;36.15;18.20;;;;;;;;;;5074481;28;20849;-81
2023/12/04 05:51:40;;;;;;;32.58;16.83;;;;;;;;;;5074137;28;20384;-81
2023/12/04 05:54:06;;;;;;;34.03;17.50;;;;;;;;;;5074484;28;20965;-81
2023/12/04 05:56:32;;;;;;;32.08;16.48;;;;;;;;;;5073850;28;20372;-81
2023/12/04 05:58:58;;;;;;;35.67;18.55;;;;;;;;;;5073659;28;20376;-81
2023/12/04 06:01:24;;;;;;;34.85;17.85;;;;;;;;;;5073761;28;20367;-81
2023/12/04 06:03:50;;;;;;;35.28;18.25;;;;;;;;;;5073869;28;20923;-81
2023/12/04 06:06:16;;;;;;;34.35;17.95;;;;;;;;;;5041915;28;20389;-81
2023/12/04 06:08:42;;;;;;;36.75;18.40;;;;;;;;;;5053869;28;20416;-81
2023/12/04 06:11:08;;;;;;;35.10;17.60;;;;;;;;;;5053625;28;20435;-81
2023/12/04 06:13:34;;;;;;;35.60;17.90;;;;;;;;;;5054359;28;20409;-81
2023/12/04 06:16:00;;;;;;;36.33;19.10;;;;;;;;;;5053891;28;20471;-81
2023/12/04 06:18:26;;;;;;;35.05;17.75;;;;;;;;;;5061834;28;20428;-81
2023/12/04 06:20:52;;;;;;;37.35;18.73;;;;;;;;;;5073832;28;20376;-82
2023/12/04 06:23:19;;;;;;;36.00;17.70;;;;;;;;;;5073897;28;20478;-81
2023/12/04 06:25:45;;;;;;;39.45;18.13;;;;;;;;;;5073546;28;20830;-81
2023/12/04 06:28:11;;;;;;;34.70;18.13;;;;;;;;;;5073795;28;20394;-81
2023/12/04 06:30:37;;;;;;;34.50;18.27;;;;;;;;;;5073925;28;20409;-81
2023/12/04 06:33:03;;;;;;;36.05;18.73;;;;;;;;;;5074101;28;20944;-82
2023/12/04 06:35:29;;;;;;;33.53;16.90;;;;;;;;;;5073544;28;20488;-81
2023/12/04 06:37:55;;;;;;;33.63;17.98;;;;;;;;;;5073568;28;20470;-81
2023/12/04 06:40:22;;;;;;;32.30;16.90;;;;;;;;;;5074059;28;20376;-81
2023/12/04 06:42:48;;;;;;;31.10;17.55;;;;;;;;;;5074167;28;20407;-81
2023/12/04 06:45:15;;;;;;;31.05;17.50;;;;;;;;;;5074802;28;20379;-81
2023/12/04 06:47:41;;;;;;;32.45;17.38;;;;;;;;;;5082019;28;20440;-81
2023/12/04 06:50:07;;;;;;;34.10;17.75;;;;;;;;;;5097314;28;20386;-81
2023/12/04 06:52:33;;;;;;;33.72;18.05;;;;;;;;;;5097863;28;20803;-81
2023/12/04 06:55:02;;;;;;;32.50;17.75;;;;;;;;;;5097576;28;20440;-81
2023/12/04 06:57:28;;;;;;;29.08;16.42;;;;;;;;;;5097704;28;20374;-81
2023/12/04 06:59:54;;;;;;;30.38;16.90;;;;;;;;;;5097781;28;20751;-81
2023/12/04 07:02:20;;;;;;;27.30;16.43;;;;;;;;;;5097434;28;20370;-80
2023/12/04 07:04:46;;;;;;;31.55;17.55;;;;;;;;;;5097233;28;20474;-80
2023/12/04 07:07:12;;;;;;;29.27;17.02;;;;;;;;;;5096985;28;20743;-80
2023/12/04 07:09:38;;;;;;;31.83;18.13;;;;;;;;;;5097374;28;20380;-81
2023/12/04 07:12:05;;;;;;;28.50;16.90;;;;;;;;;;5097670;28;20464;-80
2023/12/04 07:14:31;;;;;;;29.23;16.83;;;;;;;;;;5096876;28;20406;-80
2023/12/04 07:16:57;;;;;;;29.95;16.77;;;;;;;;;;5096881;28;20848;-80
2023/12/04 07:19:23;;;;;;;28.73;16.42;;;;;;;;;;5096942;28;20373;-80
2023/12/04 07:21:49;;;;;;;30.20;16.70;;;;;;;;;;5096738;28;20366;-80
2023/12/04 07:24:16;;;;;;;29.33;17.25;;;;;;;;;;5096600;28;20385;-80
2023/12/04 07:26:42;;;;;;;29.80;16.48;;;;;;;;;;5081157;28;20391;-80
2023/12/04 07:29:08;;;;;;;28.10;15.63;;;;;;;;;;5058704;28;20381;-80
2023/12/04 07:31:34;;;;;;;30.52;16.20;;;;;;;;;;5056253;28;20841;-80
2023/12/04 07:34:01;;;;;;;27.10;15.70;;;;;;;;;;5055950;28;20440;-80
2023/12/04 07:36:28;;;;;;;27.70;16.23;;;;;;;;;;5055242;28;20378;-80
2023/12/04 07:38:53;;;;;;;25.38;15.60;;;;;;;;;;5057347;28;20373;-80
2023/12/04 07:41:20;;;;;;;28.52;15.82;;;;;;;;;;5056200;28;20378;-80
2023/12/04 07:43:46;;;;;;;27.05;15.85;;;;;;;;;;5056231;28;20938;-80
2023/12/04 07:46:13;;;;;;;25.20;14.90;;;;;;;;;;5055809;28;20516;-80
2023/12/04 07:48:40;;;;;;;23.92;14.70;;;;;;;;;;5067087;28;20376;-80
2023/12/04 07:51:06;;;;;;;23.58;14.18;;;;;;;;;;5076319;28;20380;-80
2023/12/04 07:53:32;;;;;;;23.15;14.65;;;;;;;;;;5075585;28;20391;-80
2023/12/04 07:55:58;;;;;;;25.00;14.50;;;;;;;;;;5075629;28;20380;-80
2023/12/04 07:58:24;;;;;;;27.23;15.75;;;;;;;;;;5054955;28;20380;-81
2023/12/04 08:00:50;;;;;;;30.83;15.97;;;;;;;;;;5075927;28;20446;-81
2023/12/04 08:03:16;;;;;;;29.17;16.73;;;;;;;;;;5076055;28;20383;-81
2023/12/04 08:05:42;;;;;;;27.20;16.20;;;;;;;;;;5075879;28;20388;-81
2023/12/04 08:08:08;;;;;;;29.83;16.42;;;;;;;;;;5075747;28;20386;-81
2023/12/04 08:10:34;;;;;;;29.35;16.13;;;;;;;;;;5076747;28;20713;-81
2023/12/04 08:13:00;;;;;;;29.23;15.73;;;;;;;;;;5075488;28;20391;-80
2023/12/04 08:15:26;;;;;;;29.17;15.52;;;;;;;;;;5075756;28;20441;-81
2023/12/04 08:17:52;;;;;;;113.40;40.72;;;;;;;;;;5075665;28;20372;-80
2023/12/04 08:20:22;;;;;;;41.63;19.38;;;;;;;;;;5074500;28;20395;-80
2023/12/04 08:22:48;;;;;;;32.75;17.15;;;;;;;;;;5068570;28;20474;-80
2023/12/04 08:25:14;;;;;;;30.40;16.25;;;;;;;;;;5065136;28;20763;-80
2023/12/04 08:27:40;;;;;;;35.30;17.70;;;;;;;;;;5055300;28;20915;-80
2023/12/04 08:30:06;;;;;;;30.52;17.30;;;;;;;;;;5060287;28;20384;-80
2023/12/04 08:32:32;;;;;;;37.60;17.30;;;;;;;;;;5057100;28;20400;-80
2023/12/04 08:34:58;;;;;;;34.78;18.05;;;;;;;;;;5055811;28;20420;-80
2023/12/04 08:37:24;;;;;;;37.70;18.25;;;;;;;;;;5055956;28;20853;-80
2023/12/04 08:39:50;;;;;;;35.08;18.90;;;;;;;;;;5054941;28;20440;-80
2023/12/04 08:42:16;;;;;;;35.42;18.02;;;;;;;;;;5055448;28;20515;-80
2023/12/04 08:44:42;;;;;;;34.63;17.70;;;;;;;;;;5037259;28;20751;-80
2023/12/04 08:47:08;;;;;;;35.97;19.02;;;;;;;;;;5055224;28;20401;-80
2023/12/04 08:49:34;;;;;;;39.15;19.48;;;;;;;;;;5055784;28;20468;-80
2023/12/04 08:52:00;;;;;;;35.72;19.08;;;;;;;;;;5055616;28;20439;-81
2023/12/04 08:54:26;;;;;;;38.20;18.67;;;;;;;;;;5055365;28;20404;-81
2023/12/04 08:56:54;;;;;;;33.60;18.55;;;;;;;;;;5055165;28;20727;-80
2023/12/04 08:59:20;;;;;;;38.17;19.42;;;;;;;;;;5055419;28;20397;-82
2023/12/04 09:01:46;;;;;;;36.20;18.80;;;;;;;;;;5055701;28;20423;-83
2023/12/04 09:04:12;;;;;;;33.83;18.60;;;;;;;;;;5055339;28;20452;-80
2023/12/04 09:06:38;;;;;;;36.75;19.42;;;;;;;;;;5054287;28;20386;-80
2023/12/04 09:09:04;;;;;;;37.35;19.02;;;;;;;;;;5055020;28;20408;-80
2023/12/04 09:11:30;;;;;;;34.55;19.45;;;;;;;;;;5054117;28;21006;-80
2023/12/04 09:13:56;;;;;;;36.17;20.05;;;;;;;;;;5054789;28;20502;-80
2023/12/04 09:16:22;;;;;;;39.35;20.48;;;;;;;;;;5037215;28;20385;-81
2023/12/04 09:18:48;;;;;;;38.30;20.08;;;;;;;;;;5055922;28;20389;-81
2023/12/04 09:21:14;;;;;;;37.38;19.80;;;;;;;;;;5055196;28;20523;-81
2023/12/04 09:23:40;;;;;;;34.60;19.63;;;;;;;;;;5055563;28;20432;-81
2023/12/04 09:26:06;;;;;;;34.45;19.08;;;;;;;;;;5055747;28;20468;-81
2023/12/04 09:28:32;;;;;;;34.25;18.83;;;;;;;;;;5055277;28;20413;-81
2023/12/04 09:30:58;;;;;;;32.63;18.92;;;;;;;;;;5055341;28;20385;-81
2023/12/04 09:33:24;;;;;;;32.33;19.02;;;;;;;;;;5055231;28;20373;-81
2023/12/04 09:35:50;;;;;;;33.47;18.48;;;;;;;;;;5054991;28;20725;-81
2023/12/04 09:38:16;;;;;;;30.60;18.30;;;;;;;;;;5055238;28;20389;-81
2023/12/04 09:40:42;;;;;;;29.65;18.02;;;;;;;;;;5055117;28;21194;-81
2023/12/04 09:43:08;;;;;;;33.88;19.58;;;;;;;;;;5055108;28;20381;-81
2023/12/04 09:45:35;;;;;;;34.25;19.02;;;;;;;;;;5054831;28;20400;-81
2023/12/04 09:48:02;;;;;;;35.95;19.77;;;;;;;;;;5055054;28;20421;-81
2023/12/04 09:50:28;;;;;;;34.15;19.63;;;;;;;;;;5054683;28;20400;-81
2023/12/04 09:52:55;;;;;;;34.47;19.98;;;;;;;;;;5054384;28;20871;-81
2023/12/04 09:55:22;;;;;;;34.60;20.23;;;;;;;;;;5054383;28;20447;-81
2023/12/04 09:57:49;;;;;;;33.53;18.63;;;;;;;;;;5054463;28;20800;-81
2023/12/04 10:00:15;;;;;;;30.98;18.55;;;;;;;;;;5055229;28;20392;-81
2023/12/04 10:02:41;;;;;;;33.42;19.30;;;;;;;;;;5054385;28;20724;-81
2023/12/04 10:05:08;;;;;;;31.38;18.92;;;;;;;;;;5054176;28;20374;-81
2023/12/04 10:07:34;;;;;;;31.15;18.30;;;;;;;;;;5054425;28;20385;-82
2023/12/04 10:10:00;;;;;;;28.70;18.27;;;;;;;;;;5053469;28;20388;-81
2023/12/04 10:12:27;;;;;;;27.60;17.00;;;;;;;;;;5053595;28;20755;-81
2023/12/04 10:15:05;;;;;;;26.70;17.10;;;;;;;;;;5055143;28;20404;-81
2023/12/04 10:17:37;;;;;;;27.48;16.63;;;;;;;;;;5054973;28;20381;-81
2023/12/04 10:20:12;;;;;;;28.40;17.08;;;;;;;;;;5054379;28;20382;-81
2023/12/04 10:22:40;;;;;;;27.98;17.00;;;;;;;;;;5055834;28;20874;-81
2023/12/04 10:25:16;;;;;;;29.50;17.88;;;;;;;;;;5054545;28;20400;-81
2023/12/04 10:27:43;;;;;;;28.05;17.02;;;;;;;;;;5054152;28;20382;-81
2023/12/04 10:30:09;;;;;;;27.83;17.13;;;;;;;;;;5054777;28;20382;-81
2023/12/04 10:32:41;;;;;;;23.83;16.42;;;;;;;;;;5055027;28;20447;-82
2023/12/04 10:35:09;;;;;;;26.23;16.73;;;;;;;;;;5064816;28;20901;-81
2023/12/04 10:37:37;;;;;;;28.93;17.90;;;;;;;;;;5068213;28;20447;-81
2023/12/04 10:40:03;;;;;;;33.83;19.15;;;;;;;;;;5054645;28;20369;-81
2023/12/04 10:42:30;;;;;;;32.67;19.77;;;;;;;;;;5055343;28;20742;-80
2023/12/04 10:44:59;;;;;;;34.40;19.60;;;;;;;;;;5078949;28;20766;-79
2023/12/04 10:47:25;;;;;;;30.75;19.48;;;;;;;;;;5083504;28;20463;-80
2023/12/04 10:49:52;;;;;;;30.17;18.67;;;;;;;;;;5090008;28;20382;-80
2023/12/04 10:52:24;;;;;;;29.65;18.23;;;;;;;;;;5082895;28;20376;-80
2023/12/04 10:54:50;;;;;;;29.75;18.48;;;;;;;;;;5089696;28;20573;-80
2023/12/04 10:57:25;;;;;;;29.52;18.50;;;;;;;;;;5074789;28;20380;-80
2023/12/04 10:59:52;;;;;;;30.45;18.30;;;;;;;;;;5055193;28;20374;-79
2023/12/04 11:02:22;;;;;;;28.13;17.92;;;;;;;;;;5094609;28;20389;-80
2023/12/04 11:04:51;;;;;;;25.97;17.57;;;;;;;;;;5077509;28;20881;-80
2023/12/04 11:07:18;;;;;;;26.80;17.85;;;;;;;;;;5079534;28;20478;-80
2023/12/04 11:09:46;;;;;;;28.08;18.05;;;;;;;;;;5075773;28;20383;-81
2023/12/04 11:12:14;;;;;;;24.83;16.70;;;;;;;;;;5083358;28;20462;-80
2023/12/04 11:14:45;;;;;;;22.75;16.02;;;;;;;;;;5054221;28;20411;-80
2023/12/04 11:17:12;;;;;;;23.85;16.00;;;;;;;;;;5070032;28;20499;-80
2023/12/04 11:19:45;;;;;;;24.65;16.52;;;;;;;;;;5086218;28;20415;-81
2023/12/04 11:22:12;;;;;;;26.42;17.38;;;;;;;;;;5080335;28;20436;-81
2023/12/04 11:24:38;;;;;;;29.25;18.25;;;;;;;;;;5088475;28;20856;-79
2023/12/04 11:27:04;;;;;;;34.78;20.23;;;;;;;;;;5090835;28;20845;-81
2023/12/04 11:29:33;;;;;;;33.53;20.20;;;;;;;;;;5073722;28;20474;-79
2023/12/04 11:31:59;;;;;;;27.45;18.52;;;;;;;;;;5075655;28;20699;-80
2023/12/04 11:34:25;;;;;;;33.60;20.40;;;;;;;;;;5077654;28;20478;-80
2023/12/04 11:36:51;;;;;;;32.88;19.65;;;;;;;;;;5097158;28;20374;-79
2023/12/04 11:39:19;;;;;;;34.08;20.80;;;;;;;;;;5095828;28;20739;-80
2023/12/04 11:41:45;;;;;;;34.43;21.67;;;;;;;;;;5094693;28;20381;-80
2023/12/04 11:44:15;;;;;;;32.70;20.75;;;;;;;;;;5098646;28;20378;-80
2023/12/04 11:46:56;;;;;;;34.90;21.48;;;;;;;;;;5079103;28;20768;-80
2023/12/04 11:49:21;;;;;;;36.80;20.83;;;;;;;;;;5071975;28;20389;-82
2023/12/04 11:51:50;;;;;;;35.97;21.13;;;;;;;;;;5056924;28;20472;-83
2023/12/04 11:54:17;;;;;;;35.80;21.67;;;;;;;;;;5056175;28;21135;-83
2023/12/04 11:57:10;;;;;;;37.95;21.77;;;;;;;;;;5056796;28;20377;-82
2023/12/04 11:59:39;;;;;;;38.00;22.70;;;;;;;;;;5019197;28;20400;-83
2023/12/04 12:02:08;;;;;;;38.73;23.00;;;;;;;;;;5056442;28;20446;-82
2023/12/04 12:04:34;;;;;;;38.17;22.17;;;;;;;;;;5056703;28;20404;-82
2023/12/04 12:07:02;;;;;;;41.95;23.02;;;;;;;;;;5057089;28;20377;-82
2023/12/04 12:09:29;;;;;;;44.58;24.00;;;;;;;;;;5056932;28;20431;-82
2023/12/04 12:11:55;;;;;;;49.13;24.73;;;;;;;;;;5057059;28;20385;-82
2023/12/04 12:14:21;;;;;;;52.28;25.30;;;;;;;;;;5056928;28;20413;-82
2023/12/04 12:16:47;;;;;;;51.35;24.75;;;;;;;;;;5056086;28;20374;-82
2023/12/04 12:19:13;;;;;;;54.33;25.98;;;;;;;;;;5056434;28;20389;-82
2023/12/04 12:21:40;;;;;;;60.80;26.73;;;;;;;;;;5056150;28;20435;-82
2023/12/04 12:24:07;;;;;;;54.00;26.30;;;;;;;;;;5056999;28;20385;-82
2023/12/04 12:26:34;;;;;;;56.58;26.20;;;;;;;;;;5056545;28;20778;-82
2023/12/04 12:29:00;;;;;;;57.95;27.45;;;;;;;;;;5056754;28;20851;-82
2023/12/04 12:31:26;;;;;;;56.20;25.80;;;;;;;;;;5057074;28;20445;-82
2023/12/04 12:33:52;;;;;;;58.38;26.13;;;;;;;;;;5076795;28;20761;-82
2023/12/04 12:36:18;;;;;;;51.60;24.57;;;;;;;;;;5075626;28;20466;-82
2023/12/04 12:38:49;;;;;;;54.33;25.25;;;;;;;;;;5076866;28;20714;-82
2023/12/04 12:41:16;;;;;;;57.13;25.25;;;;;;;;;;5076584;28;20441;-82
2023/12/04 12:43:42;;;;;;;53.75;25.58;;;;;;;;;;5076806;28;20368;-82
2023/12/04 12:46:08;;;;;;;67.30;30.25;;;;;;;;;;5072895;28;20395;-82
2023/12/04 12:48:34;;;;;;;53.13;25.30;;;;;;;;;;5076940;28;20392;-82
2023/12/04 12:51:00;;;;;;;51.10;25.20;;;;;;;;;;5076434;28;20387;-83
2023/12/04 12:53:26;;;;;;;47.35;23.92;;;;;;;;;;5076987;28;20379;-83
2023/12/04 12:55:52;;;;;;;47.83;23.15;;;;;;;;;;5076479;28;20400;-82
2023/12/04 12:58:20;;;;;;;43.80;22.88;;;;;;;;;;5058000;28;20854;-83
2023/12/04 13:00:47;;;;;;;45.92;23.02;;;;;;;;;;5076515;28;20414;-82
2023/12/04 13:03:17;;;;;;;47.50;23.88;;;;;;;;;;5075798;28;20398;-82
2023/12/04 13:05:43;;;;;;;49.40;24.38;;;;;;;;;;5076605;28;20913;-83
2023/12/04 13:08:11;;;;;;;50.42;25.00;;;;;;;;;;5076129;28;20407;-83
2023/12/04 13:10:37;;;;;;;48.00;24.70;;;;;;;;;;5075784;28;20417;-82
2023/12/04 13:13:03;;;;;;;47.38;24.38;;;;;;;;;;5075568;28;20387;-83
2023/12/04 13:15:29;;;;;;;42.97;23.50;;;;;;;;;;5075631;28;20411;-83
2023/12/04 13:17:56;;;;;;;40.30;22.13;;;;;;;;;;5075305;28;20384;-83
2023/12/04 13:20:23;;;;;;;38.60;22.25;;;;;;;;;;5076299;28;20864;-83
2023/12/04 13:22:49;;;;;;;44.10;22.95;;;;;;;;;;5075494;28;20391;-83
2023/12/04 13:25:15;;;;;;;42.47;23.48;;;;;;;;;;5075496;28;20388;-82
2023/12/04 13:27:41;;;;;;;45.13;23.55;;;;;;;;;;5075795;28;20392;-83
2023/12/04 13:30:10;;;;;;;47.00;24.60;;;;;;;;;;5075703;28;20384;-82
2023/12/04 13:32:37;;;;;;;43.93;22.90;;;;;;;;;;5075818;28;20811;-83
2023/12/04 13:35:04;;;;;;;44.40;23.80;;;;;;;;;;5074228;28;20410;-82
2023/12/04 13:37:30;;;;;;;43.33;23.25;;;;;;;;;;5075351;28;20391;-82
2023/12/04 13:40:06;;;;;;;44.08;23.80;;;;;;;;;;5075510;28;20407;-83
2023/12/04 13:45:17;;;;;;;47.78;24.60;;;;;;;;;;5075429;28;20387;-83
2023/12/04 13:47:45;;;;;;;53.97;26.35;;;;;;;;;;5075533;28;20877;-82
2023/12/04 13:50:11;;;;;;;49.03;25.30;;;;;;;;;;5075590;28;20412;-82
2023/12/04 13:52:38;;;;;;;54.25;25.85;;;;;;;;;;5076129;28;20386;-82
2023/12/04 13:55:19;;;;;;;52.95;26.30;;;;;;;;;;5074848;28;20456;-83
2023/12/04 14:00:26;;;;;;;44.53;23.70;;;;;;;;;;5074276;28;20364;-83
2023/12/04 14:02:53;;;;;;;49.27;26.03;;;;;;;;;;5075469;28;20463;-82
2023/12/04 14:05:22;;;;;;;48.58;25.60;;;;;;;;;;5075761;28;20877;-82
2023/12/04 14:07:49;;;;;;;53.92;27.33;;;;;;;;;;5075950;28;20384;-82
2023/12/04 14:10:15;;;;;;;46.63;25.83;;;;;;;;;;5075148;28;20375;-83
2023/12/04 14:12:41;;;;;;;50.47;26.25;;;;;;;;;;5075353;28;20494;-82
2023/12/04 14:15:07;;;;;;;57.70;31.00;;;;;;;;;;5075111;28;20395;-82
2023/12/04 14:17:34;;;;;;;80.13;39.63;;;;;;;;;;5075012;28;20372;-83